Startpagina
METAR-TAF:

METAR-TAF

Vliegvelden :

Black_Hills

Spearfish, South Dakota, Verenigde Staten

breedte: 44-29N, lengte: 103-47W, hoogte: 1188 m

Actueel weer

Dit bericht is 15 minuten geleden gemaakt, om 00:35 UTC
Wind 11 kt uit het oosten
Temperatuur 8°C
Vochtigheid 46%
Druk 1020 hPa
Zicht: 16.1 km
Onbewolkt

METAR: KSPF 220035Z AUTO 09011KT 10SM CLR 08/M03 A3011 RMK AO2

Tijdstip: 18:50 (00:50 UTC)


TAF: ontbreekt

Waarnemingen en weersverwachtingen van meer dan 4000 vliegvelden (METAR en TAF).

De beschikbare stations zijn de gele en rode punten op de kaart.

Ga met uw muis naar het station om de naam te zien.

Klik dan om waarnemingen en weersverwachtingen te zien.

kaart wijzigen: klik op de groene knoppen met een zwart kruis om in te zoomen, op de groene knop met een streepje om uit te zoomen of op de groene pijlen voor aangrenzende kaarten.


METAR-TAF: